sensor_id;sensor_type;location;lat;lon;timestamp;P1;durP1;ratioP1;P2;durP2;ratioP2
12780;SDS011;6454;43.304;24.344;2022-12-18T00:02:13;15.30;;;10.70;;
12780;SDS011;6454;43.304;24.344;2022-12-18T00:04:41;16.67;;;11.40;;
12780;SDS011;6454;43.304;24.344;2022-12-18T00:07:08;14.35;;;10.63;;
12780;SDS011;6454;43.304;24.344;2022-12-18T00:09:34;12.57;;;9.57;;
12780;SDS011;6454;43.304;24.344;2022-12-18T00:12:01;13.88;;;10.75;;
12780;SDS011;6454;43.304;24.344;2022-12-18T00:14:28;14.70;;;10.35;;
12780;SDS011;6454;43.304;24.344;2022-12-18T00:16:55;14.70;;;10.27;;
12780;SDS011;6454;43.304;24.344;2022-12-18T00:19:23;14.93;;;10.07;;
12780;SDS011;6454;43.304;24.344;2022-12-18T00:21:51;13.80;;;10.05;;
12780;SDS011;6454;43.304;24.344;2022-12-18T00:24:18;15.83;;;10.13;;
12780;SDS011;6454;43.304;24.344;2022-12-18T00:26:45;14.73;;;10.25;;
12780;SDS011;6454;43.304;24.344;2022-12-18T00:29:12;12.73;;;10.35;;
12780;SDS011;6454;43.304;24.344;2022-12-18T00:31:40;14.88;;;10.95;;
12780;SDS011;6454;43.304;24.344;2022-12-18T00:34:08;14.52;;;10.48;;
12780;SDS011;6454;43.304;24.344;2022-12-18T00:36:36;16.27;;;10.80;;
12780;SDS011;6454;43.304;24.344;2022-12-18T00:39:05;13.77;;;10.25;;
12780;SDS011;6454;43.304;24.344;2022-12-18T00:41:32;12.45;;;9.77;;
12780;SDS011;6454;43.304;24.344;2022-12-18T00:44:16;15.77;;;10.77;;
12780;SDS011;6454;43.304;24.344;2022-12-18T00:46:44;14.93;;;10.23;;
12780;SDS011;6454;43.304;24.344;2022-12-18T00:49:12;14.87;;;11.03;;
12780;SDS011;6454;43.304;24.344;2022-12-18T00:51:39;13.67;;;10.60;;
12780;SDS011;6454;43.304;24.344;2022-12-18T00:54:07;14.15;;;10.77;;
12780;SDS011;6454;43.304;24.344;2022-12-18T00:56:35;13.97;;;10.53;;
12780;SDS011;6454;43.304;24.344;2022-12-18T00:59:02;14.67;;;10.90;;
12780;SDS011;6454;43.304;24.344;2022-12-18T01:01:29;12.70;;;10.10;;
12780;SDS011;6454;43.304;24.344;2022-12-18T01:03:57;16.23;;;11.03;;
12780;SDS011;6454;43.304;24.344;2022-12-18T01:06:24;13.73;;;10.33;;
12780;SDS011;6454;43.304;24.344;2022-12-18T01:08:51;14.80;;;10.73;;
12780;SDS011;6454;43.304;24.344;2022-12-18T01:11:20;12.53;;;9.90;;
12780;SDS011;6454;43.304;24.344;2022-12-18T01:13:47;11.33;;;9.40;;
12780;SDS011;6454;43.304;24.344;2022-12-18T01:16:14;12.10;;;9.30;;
12780;SDS011;6454;43.304;24.344;2022-12-18T01:18:42;12.83;;;9.43;;
12780;SDS011;6454;43.304;24.344;2022-12-18T01:21:11;13.50;;;10.17;;
12780;SDS011;6454;43.304;24.344;2022-12-18T01:23:39;13.07;;;9.50;;
12780;SDS011;6454;43.304;24.344;2022-12-18T01:26:06;13.03;;;10.23;;
12780;SDS011;6454;43.304;24.344;2022-12-18T01:28:35;13.93;;;9.60;;
12780;SDS011;6454;43.304;24.344;2022-12-18T01:31:11;13.93;;;10.30;;
12780;SDS011;6454;43.304;24.344;2022-12-18T01:33:39;13.87;;;9.97;;
12780;SDS011;6454;43.304;24.344;2022-12-18T01:36:06;11.30;;;9.43;;
12780;SDS011;6454;43.304;24.344;2022-12-18T01:38:34;12.47;;;9.43;;
12780;SDS011;6454;43.304;24.344;2022-12-18T01:41:00;14.30;;;9.63;;
12780;SDS011;6454;43.304;24.344;2022-12-18T01:43:42;14.07;;;9.67;;
12780;SDS011;6454;43.304;24.344;2022-12-18T01:46:14;11.40;;;8.77;;
12780;SDS011;6454;43.304;24.344;2022-12-18T01:48:42;12.53;;;9.57;;
12780;SDS011;6454;43.304;24.344;2022-12-18T01:51:10;13.63;;;9.93;;
12780;SDS011;6454;43.304;24.344;2022-12-18T01:53:37;12.70;;;9.20;;
12780;SDS011;6454;43.304;24.344;2022-12-18T01:56:06;13.20;;;9.37;;
12780;SDS011;6454;43.304;24.344;2022-12-18T01:58:35;12.27;;;9.47;;
12780;SDS011;6454;43.304;24.344;2022-12-18T02:01:09;12.47;;;9.10;;
12780;SDS011;6454;43.304;24.344;2022-12-18T02:03:36;13.70;;;9.67;;
12780;SDS011;6454;43.304;24.344;2022-12-18T02:06:05;11.87;;;8.77;;
12780;SDS011;6454;43.304;24.344;2022-12-18T02:08:40;12.73;;;9.50;;
12780;SDS011;6454;43.304;24.344;2022-12-18T02:11:18;11.73;;;9.60;;
12780;SDS011;6454;43.304;24.344;2022-12-18T02:13:56;12.00;;;8.67;;
12780;SDS011;6454;43.304;24.344;2022-12-18T02:16:37;11.57;;;8.83;;
12780;SDS011;6454;43.304;24.344;2022-12-18T02:19:15;11.67;;;8.97;;
12780;SDS011;6454;43.304;24.344;2022-12-18T02:21:49;11.37;;;8.97;;
12780;SDS011;6454;43.304;24.344;2022-12-18T02:24:27;13.53;;;9.60;;
12780;SDS011;6454;43.304;24.344;2022-12-18T02:27:02;14.10;;;10.30;;
12780;SDS011;6454;43.304;24.344;2022-12-18T02:29:34;13.53;;;10.20;;
12780;SDS011;6454;43.304;24.344;2022-12-18T02:32:06;14.33;;;10.40;;
12780;SDS011;6454;43.304;24.344;2022-12-18T02:34:37;14.87;;;10.60;;
12780;SDS011;6454;43.304;24.344;2022-12-18T02:37:06;15.93;;;11.43;;
12780;SDS011;6454;43.304;24.344;2022-12-18T02:39:37;15.60;;;12.00;;
12780;SDS011;6454;43.304;24.344;2022-12-18T02:42:07;17.43;;;11.77;;
12780;SDS011;6454;43.304;24.344;2022-12-18T02:44:35;17.57;;;12.50;;
12780;SDS011;6454;43.304;24.344;2022-12-18T02:47:09;17.70;;;12.60;;
12780;SDS011;6454;43.304;24.344;2022-12-18T02:49:39;18.27;;;12.73;;
12780;SDS011;6454;43.304;24.344;2022-12-18T02:52:16;20.07;;;12.33;;
12780;SDS011;6454;43.304;24.344;2022-12-18T02:54:56;16.83;;;12.47;;
12780;SDS011;6454;43.304;24.344;2022-12-18T02:57:32;17.77;;;12.80;;
12780;SDS011;6454;43.304;24.344;2022-12-18T03:00:04;20.70;;;13.07;;
12780;SDS011;6454;43.304;24.344;2022-12-18T03:02:36;18.43;;;12.93;;
12780;SDS011;6454;43.304;24.344;2022-12-18T03:05:09;18.13;;;12.87;;
12780;SDS011;6454;43.304;24.344;2022-12-18T03:07:42;20.10;;;14.07;;
12780;SDS011;6454;43.304;24.344;2022-12-18T03:10:16;19.60;;;13.37;;
12780;SDS011;6454;43.304;24.344;2022-12-18T03:12:52;18.43;;;13.23;;
12780;SDS011;6454;43.304;24.344;2022-12-18T03:15:28;20.70;;;14.03;;
12780;SDS011;6454;43.304;24.344;2022-12-18T03:17:59;22.30;;;14.33;;
12780;SDS011;6454;43.304;24.344;2022-12-18T03:20:31;18.43;;;12.70;;
12780;SDS011;6454;43.304;24.344;2022-12-18T03:23:02;22.07;;;15.07;;
12780;SDS011;6454;43.304;24.344;2022-12-18T03:25:35;20.50;;;14.73;;
12780;SDS011;6454;43.304;24.344;2022-12-18T03:28:07;23.17;;;15.80;;
12780;SDS011;6454;43.304;24.344;2022-12-18T03:30:36;23.00;;;14.97;;
12780;SDS011;6454;43.304;24.344;2022-12-18T03:33:07;22.93;;;15.13;;
12780;SDS011;6454;43.304;24.344;2022-12-18T03:35:40;22.03;;;14.73;;
12780;SDS011;6454;43.304;24.344;2022-12-18T03:38:09;21.60;;;15.03;;
12780;SDS011;6454;43.304;24.344;2022-12-18T03:40:40;22.67;;;15.70;;
12780;SDS011;6454;43.304;24.344;2022-12-18T03:43:18;20.63;;;15.33;;
12780;SDS011;6454;43.304;24.344;2022-12-18T03:45:53;25.00;;;16.53;;
12780;SDS011;6454;43.304;24.344;2022-12-18T03:48:26;21.33;;;14.40;;
12780;SDS011;6454;43.304;24.344;2022-12-18T03:51:01;23.87;;;16.57;;
12780;SDS011;6454;43.304;24.344;2022-12-18T03:53:33;23.23;;;16.00;;
12780;SDS011;6454;43.304;24.344;2022-12-18T03:56:06;23.30;;;15.50;;
12780;SDS011;6454;43.304;24.344;2022-12-18T03:58:36;21.87;;;16.07;;
12780;SDS011;6454;43.304;24.344;2022-12-18T04:01:07;22.30;;;15.50;;
12780;SDS011;6454;43.304;24.344;2022-12-18T04:03:38;23.23;;;15.70;;
12780;SDS011;6454;43.304;24.344;2022-12-18T04:06:06;22.07;;;15.83;;
12780;SDS011;6454;43.304;24.344;2022-12-18T04:08:34;25.10;;;16.17;;
12780;SDS011;6454;43.304;24.344;2022-12-18T04:11:01;23.17;;;15.30;;
12780;SDS011;6454;43.304;24.344;2022-12-18T04:13:29;22.03;;;15.77;;
12780;SDS011;6454;43.304;24.344;2022-12-18T04:16:01;20.97;;;14.83;;
12780;SDS011;6454;43.304;24.344;2022-12-18T04:18:29;22.07;;;15.53;;
12780;SDS011;6454;43.304;24.344;2022-12-18T04:20:56;23.23;;;15.17;;
12780;SDS011;6454;43.304;24.344;2022-12-18T04:23:23;22.37;;;15.27;;
12780;SDS011;6454;43.304;24.344;2022-12-18T04:25:50;23.20;;;16.17;;
12780;SDS011;6454;43.304;24.344;2022-12-18T04:28:16;20.80;;;15.00;;
12780;SDS011;6454;43.304;24.344;2022-12-18T04:30:43;21.50;;;15.07;;
12780;SDS011;6454;43.304;24.344;2022-12-18T04:33:12;21.03;;;14.80;;
12780;SDS011;6454;43.304;24.344;2022-12-18T04:35:42;20.23;;;14.80;;
12780;SDS011;6454;43.304;24.344;2022-12-18T04:38:09;22.80;;;15.50;;
12780;SDS011;6454;43.304;24.344;2022-12-18T04:40:36;22.47;;;15.17;;
12780;SDS011;6454;43.304;24.344;2022-12-18T04:43:03;20.77;;;14.80;;
12780;SDS011;6454;43.304;24.344;2022-12-18T04:45:30;21.27;;;15.67;;
12780;SDS011;6454;43.304;24.344;2022-12-18T04:47:58;21.00;;;14.63;;
12780;SDS011;6454;43.304;24.344;2022-12-18T04:50:26;21.93;;;16.33;;
12780;SDS011;6454;43.304;24.344;2022-12-18T04:52:53;22.03;;;15.03;;
12780;SDS011;6454;43.304;24.344;2022-12-18T04:55:20;20.53;;;15.43;;
12780;SDS011;6454;43.304;24.344;2022-12-18T04:57:47;22.90;;;15.50;;
12780;SDS011;6454;43.304;24.344;2022-12-18T05:00:14;21.77;;;15.47;;
12780;SDS011;6454;43.304;24.344;2022-12-18T05:02:41;22.40;;;15.30;;
12780;SDS011;6454;43.304;24.344;2022-12-18T05:05:08;21.90;;;15.20;;
12780;SDS011;6454;43.304;24.344;2022-12-18T05:07:37;21.80;;;15.73;;
12780;SDS011;6454;43.304;24.344;2022-12-18T05:10:07;21.93;;;15.07;;
12780;SDS011;6454;43.304;24.344;2022-12-18T05:12:34;22.63;;;15.33;;
12780;SDS011;6454;43.304;24.344;2022-12-18T05:15:21;23.70;;;15.40;;
12780;SDS011;6454;43.304;24.344;2022-12-18T05:17:48;23.37;;;15.53;;
12780;SDS011;6454;43.304;24.344;2022-12-18T05:20:14;21.73;;;15.70;;
12780;SDS011;6454;43.304;24.344;2022-12-18T05:22:44;20.70;;;14.90;;
12780;SDS011;6454;43.304;24.344;2022-12-18T05:25:11;19.90;;;14.13;;
12780;SDS011;6454;43.304;24.344;2022-12-18T05:27:38;21.90;;;15.70;;
12780;SDS011;6454;43.304;24.344;2022-12-18T05:30:05;22.53;;;15.27;;
12780;SDS011;6454;43.304;24.344;2022-12-18T05:32:33;20.80;;;14.53;;
12780;SDS011;6454;43.304;24.344;2022-12-18T05:35:00;22.77;;;14.57;;
12780;SDS011;6454;43.304;24.344;2022-12-18T05:37:26;20.17;;;13.77;;
12780;SDS011;6454;43.304;24.344;2022-12-18T05:39:55;19.93;;;14.17;;
12780;SDS011;6454;43.304;24.344;2022-12-18T05:42:21;20.97;;;13.40;;
12780;SDS011;6454;43.304;24.344;2022-12-18T05:44:48;20.47;;;14.00;;
12780;SDS011;6454;43.304;24.344;2022-12-18T05:47:15;21.10;;;14.53;;
12780;SDS011;6454;43.304;24.344;2022-12-18T05:49:42;19.50;;;14.13;;
12780;SDS011;6454;43.304;24.344;2022-12-18T05:52:08;22.10;;;15.47;;
12780;SDS011;6454;43.304;24.344;2022-12-18T05:54:35;20.30;;;13.80;;
12780;SDS011;6454;43.304;24.344;2022-12-18T05:57:04;20.90;;;13.90;;
12780;SDS011;6454;43.304;24.344;2022-12-18T05:59:30;19.33;;;13.30;;
12780;SDS011;6454;43.304;24.344;2022-12-18T06:01:57;22.77;;;13.93;;
12780;SDS011;6454;43.304;24.344;2022-12-18T06:04:24;18.73;;;13.00;;
12780;SDS011;6454;43.304;24.344;2022-12-18T06:06:53;17.67;;;12.87;;
12780;SDS011;6454;43.304;24.344;2022-12-18T06:09:20;18.80;;;13.47;;
12780;SDS011;6454;43.304;24.344;2022-12-18T06:11:47;19.37;;;13.83;;
12780;SDS011;6454;43.304;24.344;2022-12-18T06:14:15;20.47;;;13.63;;
12780;SDS011;6454;43.304;24.344;2022-12-18T06:16:42;19.57;;;13.10;;
12780;SDS011;6454;43.304;24.344;2022-12-18T06:19:12;19.07;;;13.17;;
12780;SDS011;6454;43.304;24.344;2022-12-18T06:21:41;18.47;;;13.73;;
12780;SDS011;6454;43.304;24.344;2022-12-18T06:24:07;20.03;;;13.43;;
12780;SDS011;6454;43.304;24.344;2022-12-18T06:26:36;20.77;;;14.87;;
12780;SDS011;6454;43.304;24.344;2022-12-18T06:29:03;19.77;;;13.93;;
12780;SDS011;6454;43.304;24.344;2022-12-18T06:31:32;18.30;;;13.53;;
12780;SDS011;6454;43.304;24.344;2022-12-18T06:33:58;18.67;;;13.47;;
12780;SDS011;6454;43.304;24.344;2022-12-18T06:36:25;21.00;;;13.77;;
12780;SDS011;6454;43.304;24.344;2022-12-18T06:38:52;20.00;;;14.63;;
12780;SDS011;6454;43.304;24.344;2022-12-18T06:41:19;18.47;;;13.20;;
12780;SDS011;6454;43.304;24.344;2022-12-18T06:43:47;18.10;;;13.48;;
12780;SDS011;6454;43.304;24.344;2022-12-18T06:46:13;20.23;;;13.40;;
12780;SDS011;6454;43.304;24.344;2022-12-18T06:48:42;17.95;;;12.90;;
12780;SDS011;6454;43.304;24.344;2022-12-18T06:51:09;16.88;;;12.43;;
12780;SDS011;6454;43.304;24.344;2022-12-18T06:53:35;17.20;;;13.20;;
12780;SDS011;6454;43.304;24.344;2022-12-18T06:56:03;16.83;;;11.97;;
12780;SDS011;6454;43.304;24.344;2022-12-18T06:58:31;17.50;;;12.80;;
12780;SDS011;6454;43.304;24.344;2022-12-18T07:01:01;16.63;;;12.65;;
12780;SDS011;6454;43.304;24.344;2022-12-18T07:03:28;18.55;;;13.30;;
12780;SDS011;6454;43.304;24.344;2022-12-18T07:05:56;18.43;;;13.57;;
12780;SDS011;6454;43.304;24.344;2022-12-18T07:08:24;17.35;;;12.48;;
12780;SDS011;6454;43.304;24.344;2022-12-18T07:10:51;18.90;;;12.50;;
12780;SDS011;6454;43.304;24.344;2022-12-18T07:13:19;17.98;;;12.70;;
12780;SDS011;6454;43.304;24.344;2022-12-18T07:15:45;18.03;;;12.43;;
12780;SDS011;6454;43.304;24.344;2022-12-18T07:18:12;18.00;;;12.67;;
12780;SDS011;6454;43.304;24.344;2022-12-18T07:20:39;18.52;;;12.98;;
12780;SDS011;6454;43.304;24.344;2022-12-18T07:23:07;19.87;;;12.70;;
12780;SDS011;6454;43.304;24.344;2022-12-18T07:25:34;16.30;;;11.77;;
12780;SDS011;6454;43.304;24.344;2022-12-18T07:28:01;15.18;;;12.45;;
12780;SDS011;6454;43.304;24.344;2022-12-18T07:30:27;14.88;;;11.85;;
12780;SDS011;6454;43.304;24.344;2022-12-18T07:32:54;16.75;;;12.18;;
12780;SDS011;6454;43.304;24.344;2022-12-18T07:35:21;16.40;;;11.30;;
12780;SDS011;6454;43.304;24.344;2022-12-18T07:37:48;19.42;;;13.13;;
12780;SDS011;6454;43.304;24.344;2022-12-18T07:40:16;15.88;;;10.85;;
12780;SDS011;6454;43.304;24.344;2022-12-18T07:42:42;14.52;;;11.27;;
12780;SDS011;6454;43.304;24.344;2022-12-18T07:45:09;14.40;;;10.73;;
12780;SDS011;6454;43.304;24.344;2022-12-18T07:47:36;14.43;;;11.30;;
12780;SDS011;6454;43.304;24.344;2022-12-18T07:50:03;14.45;;;11.00;;
12780;SDS011;6454;43.304;24.344;2022-12-18T07:52:31;14.57;;;10.93;;
12780;SDS011;6454;43.304;24.344;2022-12-18T07:54:57;13.27;;;10.10;;
12780;SDS011;6454;43.304;24.344;2022-12-18T07:57:26;14.38;;;10.32;;
12780;SDS011;6454;43.304;24.344;2022-12-18T07:59:52;13.35;;;9.57;;
12780;SDS011;6454;43.304;24.344;2022-12-18T08:02:19;12.80;;;9.82;;
12780;SDS011;6454;43.304;24.344;2022-12-18T08:04:46;13.07;;;9.30;;
12780;SDS011;6454;43.304;24.344;2022-12-18T08:07:13;12.43;;;8.70;;
12780;SDS011;6454;43.304;24.344;2022-12-18T08:09:39;12.80;;;8.77;;
12780;SDS011;6454;43.304;24.344;2022-12-18T08:12:06;11.88;;;7.80;;
12780;SDS011;6454;43.304;24.344;2022-12-18T08:14:34;10.43;;;7.70;;
12780;SDS011;6454;43.304;24.344;2022-12-18T08:17:01;12.73;;;7.93;;
12780;SDS011;6454;43.304;24.344;2022-12-18T08:19:28;10.25;;;8.18;;
12780;SDS011;6454;43.304;24.344;2022-12-18T08:21:54;11.85;;;7.97;;
12780;SDS011;6454;43.304;24.344;2022-12-18T08:24:22;10.02;;;7.60;;
12780;SDS011;6454;43.304;24.344;2022-12-18T08:26:49;10.13;;;7.68;;
12780;SDS011;6454;43.304;24.344;2022-12-18T08:29:15;9.20;;;7.13;;
12780;SDS011;6454;43.304;24.344;2022-12-18T08:31:43;11.55;;;7.57;;
12780;SDS011;6454;43.304;24.344;2022-12-18T08:34:10;11.43;;;7.68;;
12780;SDS011;6454;43.304;24.344;2022-12-18T08:36:37;9.45;;;7.35;;
12780;SDS011;6454;43.304;24.344;2022-12-18T08:39:04;10.38;;;7.97;;
12780;SDS011;6454;43.304;24.344;2022-12-18T08:41:30;11.02;;;6.80;;
12780;SDS011;6454;43.304;24.344;2022-12-18T08:43:57;9.57;;;6.82;;
12780;SDS011;6454;43.304;24.344;2022-12-18T08:46:42;9.65;;;7.03;;
12780;SDS011;6454;43.304;24.344;2022-12-18T08:49:11;10.82;;;7.47;;
12780;SDS011;6454;43.304;24.344;2022-12-18T08:51:38;8.75;;;6.70;;
12780;SDS011;6454;43.304;24.344;2022-12-18T08:54:05;8.98;;;7.28;;
12780;SDS011;6454;43.304;24.344;2022-12-18T08:56:32;9.70;;;7.47;;
12780;SDS011;6454;43.304;24.344;2022-12-18T08:58:59;9.77;;;7.15;;
12780;SDS011;6454;43.304;24.344;2022-12-18T09:01:26;10.73;;;6.60;;
12780;SDS011;6454;43.304;24.344;2022-12-18T09:03:54;8.95;;;6.68;;
12780;SDS011;6454;43.304;24.344;2022-12-18T09:06:22;11.05;;;6.93;;
12780;SDS011;6454;43.304;24.344;2022-12-18T09:08:49;9.38;;;6.70;;
12780;SDS011;6454;43.304;24.344;2022-12-18T09:11:18;8.38;;;6.55;;
12780;SDS011;6454;43.304;24.344;2022-12-18T09:13:46;8.75;;;6.00;;
12780;SDS011;6454;43.304;24.344;2022-12-18T09:16:13;8.77;;;6.78;;
12780;SDS011;6454;43.304;24.344;2022-12-18T09:18:40;9.73;;;6.40;;
12780;SDS011;6454;43.304;24.344;2022-12-18T09:21:09;9.15;;;6.95;;
12780;SDS011;6454;43.304;24.344;2022-12-18T09:23:37;8.65;;;6.07;;
12780;SDS011;6454;43.304;24.344;2022-12-18T09:26:04;8.73;;;6.55;;
12780;SDS011;6454;43.304;24.344;2022-12-18T09:28:31;13.75;;;7.95;;
12780;SDS011;6454;43.304;24.344;2022-12-18T09:30:58;18.17;;;9.63;;
12780;SDS011;6454;43.304;24.344;2022-12-18T09:33:25;9.05;;;6.22;;
12780;SDS011;6454;43.304;24.344;2022-12-18T09:35:52;8.20;;;6.13;;
12780;SDS011;6454;43.304;24.344;2022-12-18T09:38:20;10.82;;;7.20;;
12780;SDS011;6454;43.304;24.344;2022-12-18T09:40:49;12.57;;;6.40;;
12780;SDS011;6454;43.304;24.344;2022-12-18T09:43:19;7.57;;;5.88;;
12780;SDS011;6454;43.304;24.344;2022-12-18T09:45:50;6.60;;;5.85;;
12780;SDS011;6454;43.304;24.344;2022-12-18T09:48:20;8.18;;;5.65;;
12780;SDS011;6454;43.304;24.344;2022-12-18T09:50:51;7.60;;;5.65;;
12780;SDS011;6454;43.304;24.344;2022-12-18T09:53:26;9.00;;;6.28;;
12780;SDS011;6454;43.304;24.344;2022-12-18T09:55:56;6.63;;;5.45;;
12780;SDS011;6454;43.304;24.344;2022-12-18T09:58:24;9.55;;;6.25;;
12780;SDS011;6454;43.304;24.344;2022-12-18T10:00:55;9.18;;;6.35;;
12780;SDS011;6454;43.304;24.344;2022-12-18T10:03:22;9.15;;;6.85;;
12780;SDS011;6454;43.304;24.344;2022-12-18T10:05:52;8.40;;;6.43;;
12780;SDS011;6454;43.304;24.344;2022-12-18T10:08:32;9.30;;;6.43;;
12780;SDS011;6454;43.304;24.344;2022-12-18T10:11:12;11.70;;;7.93;;
12780;SDS011;6454;43.304;24.344;2022-12-18T10:13:51;10.07;;;7.50;;
12780;SDS011;6454;43.304;24.344;2022-12-18T10:16:22;9.43;;;7.25;;
12780;SDS011;6454;43.304;24.344;2022-12-18T10:19:00;9.60;;;6.72;;
12780;SDS011;6454;43.304;24.344;2022-12-18T10:21:38;8.98;;;6.57;;
12780;SDS011;6454;43.304;24.344;2022-12-18T10:24:19;10.68;;;7.05;;
12780;SDS011;6454;43.304;24.344;2022-12-18T10:26:50;9.50;;;7.03;;
12780;SDS011;6454;43.304;24.344;2022-12-18T10:29:19;12.43;;;7.25;;
12780;SDS011;6454;43.304;24.344;2022-12-18T10:31:46;9.60;;;7.57;;
12780;SDS011;6454;43.304;24.344;2022-12-18T10:34:15;10.13;;;7.80;;
12780;SDS011;6454;43.304;24.344;2022-12-18T10:36:42;10.15;;;7.43;;
12780;SDS011;6454;43.304;24.344;2022-12-18T10:39:16;10.25;;;8.02;;
12780;SDS011;6454;43.304;24.344;2022-12-18T10:41:50;12.88;;;8.57;;
12780;SDS011;6454;43.304;24.344;2022-12-18T10:44:17;11.13;;;8.07;;
12780;SDS011;6454;43.304;24.344;2022-12-18T10:46:45;11.43;;;8.23;;
12780;SDS011;6454;43.304;24.344;2022-12-18T10:49:19;11.80;;;7.97;;
12780;SDS011;6454;43.304;24.344;2022-12-18T10:51:49;13.45;;;9.02;;
12780;SDS011;6454;43.304;24.344;2022-12-18T10:54:19;12.40;;;8.70;;
12780;SDS011;6454;43.304;24.344;2022-12-18T10:56:48;11.30;;;8.13;;
12780;SDS011;6454;43.304;24.344;2022-12-18T10:59:16;11.68;;;9.00;;
12780;SDS011;6454;43.304;24.344;2022-12-18T11:01:51;12.23;;;8.85;;
12780;SDS011;6454;43.304;24.344;2022-12-18T11:04:21;11.10;;;8.18;;
12780;SDS011;6454;43.304;24.344;2022-12-18T11:09:37;12.63;;;8.48;;
12780;SDS011;6454;43.304;24.344;2022-12-18T11:12:08;13.75;;;8.82;;
12780;SDS011;6454;43.304;24.344;2022-12-18T11:14:43;10.98;;;8.38;;
12780;SDS011;6454;43.304;24.344;2022-12-18T11:17:17;12.32;;;8.13;;
12780;SDS011;6454;43.304;24.344;2022-12-18T11:19:45;12.48;;;8.52;;
12780;SDS011;6454;43.304;24.344;2022-12-18T11:22:20;11.57;;;8.40;;
12780;SDS011;6454;43.304;24.344;2022-12-18T11:24:54;11.52;;;8.32;;
12780;SDS011;6454;43.304;24.344;2022-12-18T11:27:24;12.32;;;8.15;;
12780;SDS011;6454;43.304;24.344;2022-12-18T11:29:52;12.13;;;8.75;;
12780;SDS011;6454;43.304;24.344;2022-12-18T11:32:27;12.05;;;8.40;;
12780;SDS011;6454;43.304;24.344;2022-12-18T11:35:01;11.73;;;7.80;;
12780;SDS011;6454;43.304;24.344;2022-12-18T11:37:36;10.30;;;7.53;;
12780;SDS011;6454;43.304;24.344;2022-12-18T11:40:09;12.77;;;8.27;;
12780;SDS011;6454;43.304;24.344;2022-12-18T11:42:41;11.20;;;7.85;;
12780;SDS011;6454;43.304;24.344;2022-12-18T11:45:20;11.23;;;7.70;;
12780;SDS011;6454;43.304;24.344;2022-12-18T11:47:54;11.63;;;8.30;;
12780;SDS011;6454;43.304;24.344;2022-12-18T11:50:26;11.45;;;7.95;;
12780;SDS011;6454;43.304;24.344;2022-12-18T11:52:58;10.90;;;7.35;;
12780;SDS011;6454;43.304;24.344;2022-12-18T11:55:30;8.98;;;7.05;;
12780;SDS011;6454;43.304;24.344;2022-12-18T11:58:04;10.70;;;7.55;;
12780;SDS011;6454;43.304;24.344;2022-12-18T12:00:39;11.65;;;7.80;;
12780;SDS011;6454;43.304;24.344;2022-12-18T12:03:20;9.70;;;6.80;;
12780;SDS011;6454;43.304;24.344;2022-12-18T12:05:57;10.73;;;7.50;;
12780;SDS011;6454;43.304;24.344;2022-12-18T12:08:35;10.05;;;7.05;;
12780;SDS011;6454;43.304;24.344;2022-12-18T12:11:13;8.65;;;6.53;;
12780;SDS011;6454;43.304;24.344;2022-12-18T12:13:52;8.85;;;7.05;;
12780;SDS011;6454;43.304;24.344;2022-12-18T12:16:27;9.45;;;7.00;;
12780;SDS011;6454;43.304;24.344;2022-12-18T12:19:03;10.93;;;7.75;;
12780;SDS011;6454;43.304;24.344;2022-12-18T12:21:41;10.70;;;7.28;;
12780;SDS011;6454;43.304;24.344;2022-12-18T12:24:12;13.02;;;8.27;;
12780;SDS011;6454;43.304;24.344;2022-12-18T12:26:56;11.10;;;7.75;;
12780;SDS011;6454;43.304;24.344;2022-12-18T12:29:34;10.65;;;7.90;;
12780;SDS011;6454;43.304;24.344;2022-12-18T12:32:13;12.10;;;8.43;;
12780;SDS011;6454;43.304;24.344;2022-12-18T12:34:51;10.45;;;7.53;;
12780;SDS011;6454;43.304;24.344;2022-12-18T12:37:27;11.93;;;7.72;;
12780;SDS011;6454;43.304;24.344;2022-12-18T12:40:07;10.43;;;6.82;;
12780;SDS011;6454;43.304;24.344;2022-12-18T12:42:42;8.65;;;6.85;;
12780;SDS011;6454;43.304;24.344;2022-12-18T12:45:33;9.15;;;6.38;;
12780;SDS011;6454;43.304;24.344;2022-12-18T12:48:05;9.13;;;6.20;;
12780;SDS011;6454;43.304;24.344;2022-12-18T12:50:37;9.48;;;6.90;;
12780;SDS011;6454;43.304;24.344;2022-12-18T12:53:05;8.48;;;6.22;;
12780;SDS011;6454;43.304;24.344;2022-12-18T12:55:35;8.75;;;6.15;;
12780;SDS011;6454;43.304;24.344;2022-12-18T12:58:06;9.25;;;6.32;;
12780;SDS011;6454;43.304;24.344;2022-12-18T13:00:44;10.82;;;6.25;;
12780;SDS011;6454;43.304;24.344;2022-12-18T13:03:27;9.05;;;6.60;;
12780;SDS011;6454;43.304;24.344;2022-12-18T13:06:02;9.65;;;5.93;;
12780;SDS011;6454;43.304;24.344;2022-12-18T13:08:51;8.60;;;6.43;;
12780;SDS011;6454;43.304;24.344;2022-12-18T13:11:28;8.30;;;6.20;;
12780;SDS011;6454;43.304;24.344;2022-12-18T13:14:21;7.40;;;5.57;;
12780;SDS011;6454;43.304;24.344;2022-12-18T13:16:49;9.18;;;5.75;;
12780;SDS011;6454;43.304;24.344;2022-12-18T13:19:21;7.85;;;5.75;;
12780;SDS011;6454;43.304;24.344;2022-12-18T13:21:53;7.00;;;5.32;;
12780;SDS011;6454;43.304;24.344;2022-12-18T13:24:23;8.50;;;6.27;;
12780;SDS011;6454;43.304;24.344;2022-12-18T13:26:57;7.65;;;5.35;;
12780;SDS011;6454;43.304;24.344;2022-12-18T13:29:42;7.22;;;5.85;;
12780;SDS011;6454;43.304;24.344;2022-12-18T13:32:19;8.45;;;5.68;;
12780;SDS011;6454;43.304;24.344;2022-12-18T13:34:46;7.55;;;5.45;;
12780;SDS011;6454;43.304;24.344;2022-12-18T13:46:19;8.95;;;5.88;;
12780;SDS011;6454;43.304;24.344;2022-12-18T13:51:48;8.83;;;5.67;;
12780;SDS011;6454;43.304;24.344;2022-12-18T13:54:18;7.73;;;6.20;;
12780;SDS011;6454;43.304;24.344;2022-12-18T13:56:47;8.57;;;6.18;;
12780;SDS011;6454;43.304;24.344;2022-12-18T13:59:16;8.33;;;6.07;;
12780;SDS011;6454;43.304;24.344;2022-12-18T14:01:46;8.43;;;6.07;;
12780;SDS011;6454;43.304;24.344;2022-12-18T14:04:18;9.47;;;7.03;;
12780;SDS011;6454;43.304;24.344;2022-12-18T14:06:47;8.13;;;6.60;;
12780;SDS011;6454;43.304;24.344;2022-12-18T14:09:17;9.30;;;6.87;;
12780;SDS011;6454;43.304;24.344;2022-12-18T14:11:49;8.90;;;6.47;;
12780;SDS011;6454;43.304;24.344;2022-12-18T14:14:17;9.20;;;6.33;;
12780;SDS011;6454;43.304;24.344;2022-12-18T14:16:46;7.90;;;5.80;;
12780;SDS011;6454;43.304;24.344;2022-12-18T14:19:14;9.37;;;6.43;;
12780;SDS011;6454;43.304;24.344;2022-12-18T14:21:45;8.47;;;6.50;;
12780;SDS011;6454;43.304;24.344;2022-12-18T14:24:13;9.93;;;6.70;;
12780;SDS011;6454;43.304;24.344;2022-12-18T14:26:42;10.33;;;7.00;;
12780;SDS011;6454;43.304;24.344;2022-12-18T14:29:18;9.13;;;6.87;;
12780;SDS011;6454;43.304;24.344;2022-12-18T14:32:09;9.40;;;7.07;;
12780;SDS011;6454;43.304;24.344;2022-12-18T14:34:39;10.00;;;6.80;;
12780;SDS011;6454;43.304;24.344;2022-12-18T14:37:07;8.83;;;6.53;;
12780;SDS011;6454;43.304;24.344;2022-12-18T14:39:36;8.70;;;6.20;;
12780;SDS011;6454;43.304;24.344;2022-12-18T14:42:04;11.00;;;7.03;;
12780;SDS011;6454;43.304;24.344;2022-12-18T14:44:31;9.33;;;6.57;;
12780;SDS011;6454;43.304;24.344;2022-12-18T14:46:58;8.93;;;6.33;;
12780;SDS011;6454;43.304;24.344;2022-12-18T14:49:26;8.83;;;6.53;;
12780;SDS011;6454;43.304;24.344;2022-12-18T14:52:01;9.80;;;7.07;;
12780;SDS011;6454;43.304;24.344;2022-12-18T14:54:30;10.10;;;7.33;;
12780;SDS011;6454;43.304;24.344;2022-12-18T14:57:00;10.80;;;7.00;;
12780;SDS011;6454;43.304;24.344;2022-12-18T14:59:30;11.13;;;6.80;;
12780;SDS011;6454;43.304;24.344;2022-12-18T15:01:59;10.37;;;7.67;;
12780;SDS011;6454;43.304;24.344;2022-12-18T15:04:32;11.07;;;7.63;;